Time;durP1;ratioP1;P1;durP2;ratioP2;P2;SDS_P1;SDS_P2;PMS_P1;PMS_P2;Temp;Humidity;BMP_temperature;BMP_pressure;BME280_temperature;BME280_humidity;BME280_pressure;Samples;Min_cycle;Max_cycle;Signal;HPM_P1;HPM_P2
2023/06/21 00:01:32;;;;;;;10.50;5.30;;;;;;;20.66;69.76;99275.30;82174;1292;3011100;-66
2023/06/21 00:04:01;;;;;;;8.80;5.50;;;;;;;20.66;69.86;99277.79;80932;1292;3052399;-66
2023/06/21 00:06:28;;;;;;;15.30;6.70;;;;;;;20.39;69.65;99275.80;82210;1292;3011488;-66
2023/06/21 00:08:56;;;;;;;16.50;7.00;;;;;;;20.17;69.81;99277.54;82221;1292;3011128;-66
2023/06/21 00:11:24;;;;;;;15.50;7.70;;;;;;;19.93;70.82;99277.32;80917;1294;3068732;-66
2023/06/21 00:13:54;;;;;;;16.30;6.00;;;;;;;19.70;71.85;99271.70;82215;1292;3012811;-66
2023/06/21 00:16:22;;;;;;;11.50;7.10;;;;;;;19.54;72.42;99274.16;80969;1292;3049324;-66
2023/06/21 00:18:49;;;;;;;11.20;7.40;;;;;;;19.53;72.08;99272.98;82252;1292;3018156;-68
2023/06/21 00:21:15;;;;;;;11.80;6.20;;;;;;;19.44;72.97;99274.67;82178;1294;3011554;-66
2023/06/21 00:23:43;;;;;;;10.00;7.10;;;;;;;19.40;72.82;99269.70;80915;1297;3026603;-67
2023/06/21 00:26:10;;;;;;;7.60;4.60;;;;;;;19.44;72.62;99274.79;82264;1292;3017932;-66
2023/06/21 00:28:36;;;;;;;9.00;5.10;;;;;;;20.03;70.78;99275.02;82179;1298;3011057;-67
2023/06/21 00:31:08;;;;;;;7.70;5.20;;;;;;;20.22;69.91;99278.95;80946;1292;3049355;-66
2023/06/21 00:33:35;;;;;;;8.20;6.80;;;;;;;20.09;70.94;99277.83;82138;1292;3011270;-66
2023/06/21 00:36:04;;;;;;;9.60;7.50;;;;;;;19.97;71.06;99277.09;81704;1292;3011498;-66
2023/06/21 00:38:34;;;;;;;10.10;8.30;;;;;;;19.85;71.85;99279.38;82224;1292;3013178;-67
2023/06/21 00:41:04;;;;;;;12.60;9.20;;;;;;;19.77;72.17;99272.89;80962;1292;3068495;-66
2023/06/21 00:43:31;;;;;;;16.30;8.20;;;;;;;19.59;73.21;99280.76;82205;1292;3011309;-66
2023/06/21 00:45:58;;;;;;;13.20;7.60;;;;;;;19.47;73.44;99281.09;82243;1292;3013129;-66
2023/06/21 00:48:28;;;;;;;11.20;7.80;;;;;;;19.27;74.83;99286.79;80961;1292;3050371;-67
2023/06/21 00:50:55;;;;;;;8.30;4.10;;;;;;;19.28;75.26;99281.31;82221;1292;3011374;-66
2023/06/21 00:53:26;;;;;;;6.90;4.20;;;;;;;19.68;74.97;99286.58;81695;1292;3011261;-66
2023/06/21 00:55:54;;;;;;;8.90;5.20;;;;;;;20.43;71.60;99289.90;82160;1292;3011709;-67
2023/06/21 00:58:24;;;;;;;10.00;6.40;;;;;;;20.41;71.09;99294.56;80916;1297;3027343;-67
2023/06/21 01:00:50;;;;;;;12.60;8.30;;;;;;;20.22;71.24;99296.73;82215;1292;3018285;-67
2023/06/21 01:03:20;;;;;;;9.20;7.10;;;;;;;19.90;72.48;99288.35;82177;1292;3011237;-66
2023/06/21 01:06:12;;;;;;;10.80;7.10;;;;;;;19.66;73.75;99288.23;80845;1292;3048824;-67
2023/06/21 01:08:42;;;;;;;11.60;7.10;;;;;;;19.51;74.01;99279.96;80842;1292;3054847;-67
2023/06/21 01:11:24;;;;;;;7.30;6.10;;;;;;;19.39;74.46;99277.58;82211;1292;3011185;-67
2023/06/21 01:14:30;;;;;;;11.20;6.20;;;;;;;19.32;75.13;99277.42;80933;1292;3053065;-67
2023/06/21 01:16:58;;;;;;;5.10;3.20;;;;;;;19.36;74.83;99276.34;80435;1302;3052526;-68
2023/06/21 01:19:57;;;;;;;5.50;4.20;;;;;;;20.17;72.83;99269.55;82108;1294;3012650;-67
2023/06/21 01:22:55;;;;;;;6.50;3.40;;;;;;;20.48;70.22;99256.30;80955;1292;3056597;-67
2023/06/21 01:25:29;;;;;;;6.00;3.80;;;;;;;20.43;68.82;99247.95;80913;1292;3048506;-67
2023/06/21 01:28:33;;;;;;;5.20;3.60;;;;;;;20.35;69.53;99249.48;82219;1292;3011139;-67
2023/06/21 01:31:01;;;;;;;7.50;3.90;;;;;;;20.21;70.85;99250.77;80938;1292;3050483;-67
2023/06/21 01:33:27;;;;;;;5.70;3.90;;;;;;;20.11;70.21;99250.83;82095;1298;3018524;-67
2023/06/21 01:35:54;;;;;;;7.10;5.30;;;;;;;20.05;70.87;99244.61;82206;1292;3011195;-67
2023/06/21 01:38:24;;;;;;;9.00;6.20;;;;;;;19.96;73.14;99243.02;80905;1292;3026658;-67
2023/06/21 01:40:50;;;;;;;9.30;7.30;;;;;;;19.87;74.13;99239.18;82079;1295;3012411;-67
2023/06/21 01:43:17;;;;;;;7.40;4.80;;;;;;;19.75;76.22;99235.27;82234;1292;3011340;-67
2023/06/21 01:45:46;;;;;;;7.70;5.00;;;;;;;20.17;75.84;99233.80;80906;1292;3049633;-66
2023/06/21 01:48:12;;;;;;;8.30;5.10;;;;;;;20.70;74.58;99220.30;82197;1294;3013199;-67
2023/06/21 01:50:40;;;;;;;8.00;5.80;;;;;;;20.82;73.66;99204.04;82146;1294;3011226;-67
2023/06/21 01:53:07;;;;;;;14.40;6.30;;;;;;;20.56;74.06;99202.38;80926;1292;3051478;-67
2023/06/21 01:55:34;;;;;;;10.90;6.70;;;;;;;20.32;75.70;99193.15;82206;1292;3013269;-67
2023/06/21 01:58:00;;;;;;;11.60;7.40;;;;;;;20.13;77.88;99183.54;82138;1294;3011393;-68
2023/06/21 02:00:29;;;;;;;9.10;7.00;;;;;;;19.93;78.63;99187.29;80747;1300;3027701;-68
2023/06/21 02:02:59;;;;;;;15.40;6.90;;;;;;;19.86;79.05;99185.80;82173;1294;3013259;-71
2023/06/21 02:05:27;;;;;;;6.60;4.30;;;;;;;19.81;79.43;99182.20;80830;1292;3068860;-65
2023/06/21 02:07:54;;;;;;;10.10;4.90;;;;;;;20.29;78.78;99182.03;82132;1292;3018001;-66
2023/06/21 02:10:20;;;;;;;10.60;5.80;;;;;;;20.73;77.90;99189.09;82161;1292;3011364;-68
2023/06/21 02:12:50;;;;;;;10.30;6.00;;;;;;;20.77;76.35;99186.75;80967;1292;3053193;-68
2023/06/21 02:15:18;;;;;;;12.10;6.20;;;;;;;20.66;76.29;99195.74;82229;1292;3011418;-66
2023/06/21 02:17:51;;;;;;;9.30;6.50;;;;;;;20.49;76.62;99202.99;81685;1298;3011210;-65
2023/06/21 02:20:22;;;;;;;11.80;7.70;;;;;;;20.25;77.21;99208.61;82206;1294;3011181;-67
2023/06/21 02:22:49;;;;;;;10.00;7.40;;;;;;;20.18;77.39;99211.48;80935;1292;3068950;-68
2023/06/21 02:25:16;;;;;;;10.20;6.70;;;;;;;20.12;76.75;99219.03;82282;1292;3018222;-66
2023/06/21 02:27:44;;;;;;;9.40;6.80;;;;;;;20.05;75.78;99222.20;82185;1292;3011519;-67
2023/06/21 02:30:13;;;;;;;5.70;3.80;;;;;;;19.92;75.18;99226.07;80912;1298;3053732;-67
2023/06/21 02:32:40;;;;;;;7.50;4.60;;;;;;;20.40;73.68;99226.09;82245;1292;3011047;-66
2023/06/21 02:35:08;;;;;;;9.90;6.60;;;;;;;20.94;73.61;99219.54;82204;1293;3011420;-65
2023/06/21 02:37:37;;;;;;;20.10;9.40;;;;;;;21.00;74.67;99215.77;80926;1292;3068398;-67
2023/06/21 02:40:11;;;;;;;25.20;11.60;;;;;;;20.87;75.44;99217.89;82252;1292;3013236;-67
2023/06/21 02:42:39;;;;;;;19.20;10.70;;;;;;;20.77;74.91;99217.89;80979;1291;3048810;-67
2023/06/21 02:45:09;;;;;;;20.30;10.40;;;;;;;20.69;73.86;99213.27;82170;1292;3011417;-69
2023/06/21 02:47:38;;;;;;;13.70;6.90;;;;;;;20.60;73.36;99207.76;80944;1292;3049683;-69
2023/06/21 02:50:05;;;;;;;22.10;9.50;;;;;;;20.52;71.78;99202.20;82211;1294;3018125;-69
2023/06/21 02:52:32;;;;;;;24.10;11.40;;;;;;;20.45;73.96;99199.42;82221;1292;3011259;-67
2023/06/21 02:55:02;;;;;;;12.00;5.80;;;;;;;20.42;75.27;99197.42;80944;1292;3051590;-69
2023/06/21 02:57:30;;;;;;;18.70;7.00;;;;;;;20.98;73.30;99195.33;82220;1292;3011378;-67
2023/06/21 02:59:59;;;;;;;17.80;7.70;;;;;;;21.54;71.18;99187.13;81692;1292;3011361;-67
2023/06/21 03:02:33;;;;;;;18.80;10.10;;;;;;;21.66;69.32;99184.20;82221;1292;3012776;-68
2023/06/21 03:05:01;;;;;;;;;;;;;;;21.59;70.08;99179.42;80948;1292;3051656;-67
2023/06/21 03:07:27;;;;;;;17.40;9.40;;;;;;;21.45;71.13;99171.58;82219;1291;3018800;-65
2023/06/21 03:09:55;;;;;;;20.00;10.00;;;;;;;21.30;71.68;99162.78;82247;1292;3011398;-65
2023/06/21 03:12:22;;;;;;;20.40;10.60;;;;;;;21.15;72.94;99163.29;80972;1292;3026300;-70
2023/06/21 03:14:50;;;;;;;16.90;9.00;;;;;;;20.99;75.55;99165.20;82186;1292;3011190;-70
2023/06/21 03:17:17;;;;;;;10.40;5.70;;;;;;;20.93;76.53;99165.13;82231;1292;3011296;-67
2023/06/21 03:19:45;;;;;;;13.30;6.30;;;;;;;21.41;74.96;99163.77;80922;1296;3051381;-64
2023/06/21 03:22:12;;;;;;;14.90;6.00;;;;;;;21.99;71.28;99158.95;82253;1292;3018017;-67
2023/06/21 03:24:38;;;;;;;8.00;4.40;;;;;;;22.20;67.77;99156.55;82184;1292;3011304;-68
2023/06/21 03:27:07;;;;;;;7.40;4.40;;;;;;;22.25;63.80;99163.16;80915;1292;3027477;-69
2023/06/21 03:29:34;;;;;;;9.50;6.20;;;;;;;22.13;63.80;99160.19;82198;1293;3011382;-68
2023/06/21 03:32:01;;;;;;;11.20;7.20;;;;;;;22.02;69.98;99164.89;82155;1294;3010926;-67
2023/06/21 03:34:29;;;;;;;15.40;6.90;;;;;;;21.92;70.37;99173.26;80977;1292;3052968;-66
2023/06/21 03:36:56;;;;;;;13.80;6.80;;;;;;;21.90;70.68;99182.77;82228;1292;3012769;-65
2023/06/21 03:39:24;;;;;;;10.90;6.20;;;;;;;21.87;69.98;99180.97;82171;1292;3011442;-64
2023/06/21 03:41:52;;;;;;;9.30;6.20;;;;;;;21.81;70.77;99180.19;80974;1292;3055057;-66
2023/06/21 03:44:19;;;;;;;11.70;5.50;;;;;;;21.83;71.11;99172.19;82226;1291;3012788;-65
2023/06/21 03:46:46;;;;;;;10.10;6.20;;;;;;;21.84;71.19;99174.02;82234;1291;3011353;-67
2023/06/21 03:49:14;;;;;;;10.20;6.10;;;;;;;21.83;70.49;99172.73;80979;1294;3051808;-67
2023/06/21 03:51:41;;;;;;;9.40;5.60;;;;;;;21.85;71.02;99178.58;82207;1292;3012642;-68
2023/06/21 03:54:08;;;;;;;7.50;4.90;;;;;;;21.91;68.21;99180.31;82207;1292;3011384;-67
2023/06/21 03:56:38;;;;;;;7.80;5.10;;;;;;;22.05;66.31;99185.40;80933;1292;3057015;-67
2023/06/21 03:59:04;;;;;;;9.40;5.60;;;;;;;22.09;63.17;99189.20;82195;1292;3012549;-67
2023/06/21 04:01:31;;;;;;;8.20;5.30;;;;;;;22.08;64.06;99196.64;82178;1292;3011075;-66
2023/06/21 04:03:59;;;;;;;9.10;5.90;;;;;;;22.10;64.32;99197.61;80965;1291;3051567;-66
2023/06/21 04:06:26;;;;;;;8.80;5.20;;;;;;;22.12;65.88;99203.05;82267;1292;3013042;-66
2023/06/21 04:08:52;;;;;;;12.30;6.70;;;;;;;22.17;67.09;99206.52;82172;1292;3011421;-67
2023/06/21 04:11:20;;;;;;;9.60;6.10;;;;;;;22.21;67.99;99205.41;80972;1292;3025957;-65
2023/06/21 04:13:47;;;;;;;7.90;4.00;;;;;;;22.31;69.04;99204.79;82189;1292;3018451;-67
2023/06/21 04:16:14;;;;;;;7.50;4.30;;;;;;;22.89;67.87;99205.46;82203;1291;3011352;-70
2023/06/21 04:18:42;;;;;;;6.80;4.60;;;;;;;23.50;66.44;99203.80;80951;1293;3028534;-67
2023/06/21 04:21:09;;;;;;;8.50;5.80;;;;;;;23.65;65.47;99206.38;82227;1291;3018188;-68
2023/06/21 04:23:36;;;;;;;8.10;5.10;;;;;;;23.47;64.00;99209.20;82150;1292;3011161;-65
2023/06/21 04:26:06;;;;;;;9.90;5.30;;;;;;;23.40;63.72;99215.73;80934;1292;3056285;-65
2023/06/21 04:28:33;;;;;;;8.70;5.70;;;;;;;23.26;63.89;99216.15;82102;1292;3011708;-65
2023/06/21 04:31:02;;;;;;;11.80;6.00;;;;;;;23.03;64.68;99221.50;81600;1293;3011379;-69
2023/06/21 04:33:29;;;;;;;9.50;5.00;;;;;;;22.89;64.03;99230.23;82199;1293;3018719;-67
2023/06/21 04:35:57;;;;;;;6.40;5.20;;;;;;;22.80;62.57;99237.37;82197;1297;3011359;-65
2023/06/21 04:38:25;;;;;;;7.20;5.90;;;;;;;22.69;62.44;99238.44;80984;1292;3067753;-67
2023/06/21 04:40:52;;;;;;;13.00;7.00;;;;;;;22.62;63.14;99242.96;82218;1291;3013058;-65
2023/06/21 04:43:21;;;;;;;10.70;7.50;;;;;;;22.58;63.98;99240.92;82186;1291;3011550;-67
2023/06/21 04:45:48;;;;;;;17.50;8.50;;;;;;;22.50;64.15;99242.02;80959;1292;3053870;-66
2023/06/21 04:48:15;;;;;;;16.90;8.90;;;;;;;22.47;65.04;99245.16;82238;1295;3012702;-68
2023/06/21 04:50:45;;;;;;;13.40;8.50;;;;;;;22.54;65.30;99246.07;82240;1291;3011306;-70
2023/06/21 04:53:13;;;;;;;17.20;8.70;;;;;;;22.58;65.90;99249.36;80954;1291;3069828;-71
2023/06/21 04:55:43;;;;;;;13.90;8.90;;;;;;;22.37;65.43;99253.87;82275;1291;3011204;-69
2023/06/21 04:58:12;;;;;;;14.10;9.10;;;;;;;22.20;66.07;99252.81;81690;1292;3011439;-67
2023/06/21 05:00:40;;;;;;;16.70;8.70;;;;;;;22.27;65.54;99248.89;82225;1291;3013210;-67
2023/06/21 05:03:07;;;;;;;16.30;9.60;;;;;;;22.28;65.81;99247.74;82223;1292;3011423;-68
2023/06/21 05:05:35;;;;;;;12.70;8.90;;;;;;;22.19;66.41;99251.19;80973;1291;3051156;-68
2023/06/21 05:08:02;;;;;;;15.90;8.80;;;;;;;22.30;66.47;99254.29;82231;1291;3018476;-68
2023/06/21 05:10:28;;;;;;;14.50;8.90;;;;;;;22.43;66.02;99256.86;82208;1291;3011064;-70
2023/06/21 05:12:56;;;;;;;13.80;8.80;;;;;;;22.50;65.88;99253.84;80954;1292;3026043;-66
2023/06/21 05:15:23;;;;;;;12.80;8.50;;;;;;;22.53;65.92;99257.30;82239;1292;3018716;-66
2023/06/21 05:17:49;;;;;;;14.10;8.30;;;;;;;22.59;65.18;99255.80;82199;1294;3010991;-65
2023/06/21 05:20:18;;;;;;;13.40;7.80;;;;;;;22.62;64.41;99257.35;80945;1292;3026544;-68
2023/06/21 05:22:46;;;;;;;14.40;7.60;;;;;;;22.69;62.96;99256.27;82218;1291;3011286;-65
2023/06/21 05:25:13;;;;;;;13.60;7.60;;;;;;;22.67;63.13;99255.83;82233;1292;3011296;-66
2023/06/21 05:27:40;;;;;;;11.80;7.00;;;;;;;22.71;62.66;99262.66;80954;1291;3058642;-65
2023/06/21 05:30:07;;;;;;;13.80;7.10;;;;;;;22.76;63.08;99256.89;82232;1291;3018192;-65
2023/06/21 05:32:34;;;;;;;10.70;7.10;;;;;;;22.70;63.15;99259.15;82223;1291;3011067;-64
2023/06/21 05:35:02;;;;;;;11.90;6.70;;;;;;;22.81;62.62;99258.27;80946;1293;3027048;-64
2023/06/21 05:37:29;;;;;;;10.10;6.40;;;;;;;22.89;62.10;99261.34;82232;1292;3012981;-65
2023/06/21 05:40:00;;;;;;;10.00;6.20;;;;;;;22.97;61.39;99262.85;82213;1292;3011239;-64
2023/06/21 05:42:29;;;;;;;10.90;6.10;;;;;;;23.06;60.84;99264.50;80956;1292;3056834;-64
2023/06/21 05:44:55;;;;;;;10.50;6.90;;;;;;;23.12;60.42;99269.04;82214;1291;3012923;-66
2023/06/21 05:47:22;;;;;;;10.40;6.30;;;;;;;23.19;60.02;99261.48;82176;1292;3011380;-66
2023/06/21 05:49:50;;;;;;;8.70;6.00;;;;;;;23.22;59.61;99260.55;80962;1292;3051945;-66
2023/06/21 05:52:16;;;;;;;10.10;6.30;;;;;;;23.24;59.31;99258.86;82264;1291;3018186;-66
2023/06/21 05:54:44;;;;;;;8.20;5.60;;;;;;;23.27;59.25;99256.55;82216;1292;3011302;-66
2023/06/21 05:57:14;;;;;;;9.00;5.90;;;;;;;23.35;58.98;99263.73;80965;1292;3056079;-67
2023/06/21 05:59:43;;;;;;;8.40;6.60;;;;;;;23.37;58.99;99260.83;82211;1293;3012898;-66
2023/06/21 06:02:09;;;;;;;8.40;6.70;;;;;;;23.36;59.38;99261.19;82213;1292;3011479;-68
2023/06/21 06:04:38;;;;;;;10.20;6.60;;;;;;;23.46;59.77;99260.82;80941;1294;3053229;-65
2023/06/21 06:07:05;;;;;;;9.50;6.80;;;;;;;23.60;59.48;99263.11;82230;1292;3018438;-67
2023/06/21 06:09:31;;;;;;;9.30;7.20;;;;;;;23.60;59.89;99263.40;82214;1292;3011425;-70
2023/06/21 06:11:59;;;;;;;11.10;7.20;;;;;;;23.63;59.55;99266.45;80923;1292;3056898;-68
2023/06/21 06:14:26;;;;;;;12.30;7.30;;;;;;;23.70;59.53;99267.55;82225;1292;3012563;-66
2023/06/21 06:16:53;;;;;;;10.80;6.70;;;;;;;23.64;59.31;99263.63;82184;1292;3011797;-68
2023/06/21 06:19:21;;;;;;;9.20;6.00;;;;;;;23.62;59.03;99266.39;80973;1294;3050717;-69
2023/06/21 06:21:48;;;;;;;9.40;7.20;;;;;;;23.52;58.56;99276.10;82233;1292;3018466;-69
2023/06/21 06:24:14;;;;;;;9.90;6.60;;;;;;;23.53;58.64;99274.04;82240;1292;3011256;-73
2023/06/21 06:26:42;;;;;;;9.20;6.80;;;;;;;23.60;58.94;99278.45;80950;1292;3025525;-69
2023/06/21 06:29:08;;;;;;;13.00;6.90;;;;;;;23.64;59.11;99277.77;82217;1292;3012620;-68
2023/06/21 06:31:35;;;;;;;11.60;7.20;;;;;;;23.66;59.45;99280.03;82173;1291;3011151;-72
2023/06/21 06:34:03;;;;;;;8.60;6.60;;;;;;;23.70;59.47;99281.37;80937;1292;3026151;-70
2023/06/21 06:36:30;;;;;;;9.80;6.30;;;;;;;23.86;59.42;99285.61;82226;1291;3012485;-70
2023/06/21 06:38:56;;;;;;;9.70;6.80;;;;;;;23.89;59.19;99284.68;82196;1291;3011276;-70
2023/06/21 06:41:24;;;;;;;8.00;6.40;;;;;;;23.87;59.53;99282.60;80958;1292;3025438;-72
2023/06/21 06:43:52;;;;;;;7.60;5.60;;;;;;;23.94;59.69;99286.95;82221;1292;3012770;-68
2023/06/21 06:46:19;;;;;;;7.00;5.50;;;;;;;24.10;58.98;99284.83;82232;1292;3011109;-70
2023/06/21 06:48:47;;;;;;;7.20;5.00;;;;;;;24.16;58.08;99286.44;80930;1291;3051292;-68
2023/06/21 06:51:13;;;;;;;9.10;5.50;;;;;;;24.21;57.35;99289.23;82312;1292;3013012;-71
2023/06/21 06:53:40;;;;;;;8.30;5.00;;;;;;;24.23;56.11;99291.30;82255;1292;3011347;-68
2023/06/21 06:56:08;;;;;;;7.60;4.60;;;;;;;24.24;55.91;99295.13;80969;1291;3027833;-67
2023/06/21 06:58:35;;;;;;;7.40;5.20;;;;;;;24.31;55.67;99293.30;82227;1291;3013136;-70
2023/06/21 07:01:05;;;;;;;6.00;5.10;;;;;;;24.34;55.62;99293.45;82185;1294;3011295;-72
2023/06/21 07:03:34;;;;;;;6.70;4.60;;;;;;;24.35;55.48;99293.70;80966;1294;3052339;-67
2023/06/21 07:06:00;;;;;;;8.60;4.40;;;;;;;24.25;54.91;99294.98;82207;1291;3012427;-68
2023/06/21 07:08:27;;;;;;;9.60;5.50;;;;;;;24.22;55.28;99295.35;82204;1292;3011548;-68
2023/06/21 07:10:55;;;;;;;6.60;4.40;;;;;;;24.23;55.17;99294.08;80918;1292;3026090;-67
2023/06/21 07:13:23;;;;;;;9.70;4.80;;;;;;;24.25;55.22;99297.78;82211;1291;3011053;-65
2023/06/21 07:15:50;;;;;;;7.60;4.50;;;;;;;24.37;55.15;99297.65;82165;1295;3011523;-66
2023/06/21 07:18:18;;;;;;;10.00;4.80;;;;;;;24.62;54.79;99301.32;80927;1291;3051861;-65
2023/06/21 07:20:45;;;;;;;7.70;4.60;;;;;;;24.80;54.75;99298.52;82243;1292;3013018;-67
2023/06/21 07:23:12;;;;;;;5.60;4.20;;;;;;;25.03;53.50;99300.17;82177;1291;3011207;-66
2023/06/21 07:28:55;;;;;;;6.20;4.50;;;;;;;25.58;51.69;99296.09;80179;1302;3013121;-69
2023/06/21 07:31:22;;;;;;;5.20;4.30;;;;;;;25.77;51.06;99298.47;79364;1304;3018938;-67
2023/06/21 07:33:49;;;;;;;7.70;4.70;;;;;;;25.91;50.37;99299.97;79287;1306;3011850;-68
2023/06/21 07:36:18;;;;;;;5.50;4.20;;;;;;;26.04;50.01;99297.26;78090;1304;3051934;-69
2023/06/21 07:38:46;;;;;;;5.00;4.00;;;;;;;26.13;49.33;99300.09;81702;1301;3013110;-69
2023/06/21 07:41:13;;;;;;;7.40;4.70;;;;;;;26.28;48.93;99294.20;79689;1302;3011265;-70
2023/06/21 07:43:42;;;;;;;4.70;3.90;;;;;;;26.15;48.96;99297.45;80586;1298;3026494;-70
2023/06/21 07:46:09;;;;;;;5.30;4.00;;;;;;;26.20;48.34;99301.34;81859;1298;3017875;-73
2023/06/21 07:48:37;;;;;;;7.50;3.90;;;;;;;26.21;48.15;99300.09;81843;1298;3011369;-68
2023/06/21 07:51:05;;;;;;;6.00;4.70;;;;;;;26.19;48.27;99305.05;80489;1302;3052064;-67
2023/06/21 07:53:32;;;;;;;6.30;4.50;;;;;;;26.19;48.77;99305.59;81863;1298;3012598;-67
2023/06/21 07:56:00;;;;;;;7.50;4.70;;;;;;;26.27;48.77;99304.39;81868;1298;3011363;-66
2023/06/21 07:58:28;;;;;;;5.00;4.20;;;;;;;26.26;48.99;99307.73;80643;1298;3049301;-69
2023/06/21 08:00:55;;;;;;;6.30;5.10;;;;;;;26.18;49.09;99311.63;81893;1298;3012663;-67
2023/06/21 08:03:21;;;;;;;7.20;4.40;;;;;;;26.12;48.32;99312.02;81878;1298;3011374;-67
2023/06/21 08:05:49;;;;;;;7.80;4.80;;;;;;;26.07;47.71;99316.26;80658;1298;3051685;-67
2023/06/21 08:08:17;;;;;;;5.60;4.40;;;;;;;26.06;47.78;99318.00;81920;1298;3012478;-69
2023/06/21 08:10:44;;;;;;;5.00;4.20;;;;;;;26.11;47.77;99316.60;81864;1297;3011523;-68
2023/06/21 08:13:12;;;;;;;6.30;4.50;;;;;;;26.12;48.07;99312.72;80601;1298;3049391;-67
2023/06/21 08:15:38;;;;;;;6.50;4.40;;;;;;;26.26;48.58;99318.00;81914;1298;3012548;-71
2023/06/21 08:18:05;;;;;;;5.00;4.50;;;;;;;26.37;48.76;99320.30;81860;1298;3011564;-69
2023/06/21 08:20:33;;;;;;;7.70;4.10;;;;;;;26.53;48.68;99320.95;80645;1301;3026112;-68
2023/06/21 08:23:00;;;;;;;6.10;4.40;;;;;;;26.63;48.18;99324.31;81932;1298;3011398;-66
2023/06/21 08:25:28;;;;;;;5.10;4.30;;;;;;;26.61;48.00;99327.41;81898;1298;3011485;-70
2023/06/21 08:27:57;;;;;;;6.70;4.50;;;;;;;26.70;47.25;99322.66;80660;1298;3048738;-67
2023/06/21 08:30:23;;;;;;;5.40;4.50;;;;;;;26.60;46.78;99323.64;81914;1298;3018230;-67
2023/06/21 08:32:51;;;;;;;5.30;4.20;;;;;;;26.61;45.46;99325.09;81868;1297;3011131;-68
2023/06/21 08:35:19;;;;;;;6.70;4.30;;;;;;;26.50;46.09;99325.63;80632;1301;3053006;-68
2023/06/21 08:37:58;;;;;;;5.60;4.40;;;;;;;26.57;46.87;99322.18;81921;1298;3012716;-69
2023/06/21 08:40:33;;;;;;;6.40;4.50;;;;;;;26.84;46.10;99324.46;80608;1298;3057311;-68
2023/06/21 08:43:01;;;;;;;6.10;4.50;;;;;;;26.91;45.75;99323.36;81334;1297;3011223;-71
2023/06/21 08:45:28;;;;;;;8.30;4.60;;;;;;;26.77;45.72;99327.05;81939;1298;3013015;-67
2023/06/21 08:47:58;;;;;;;6.90;4.90;;;;;;;26.79;45.68;99327.47;81899;1298;3011403;-68
2023/06/21 08:50:26;;;;;;;5.90;5.10;;;;;;;26.89;45.63;99327.41;80630;1298;3052054;-68
2023/06/21 08:52:53;;;;;;;7.30;5.00;;;;;;;27.11;45.22;99327.55;81946;1298;3013176;-69
2023/06/21 08:55:22;;;;;;;5.70;4.20;;;;;;;27.35;45.74;99330.38;81786;1298;3011891;-69
2023/06/21 09:00:16;;;;;;;8.00;4.80;;;;;;;27.68;44.70;99330.07;79952;1303;3013062;-68
2023/06/21 09:02:49;;;;;;;7.30;5.10;;;;;;;27.73;44.74;99333.55;79219;1303;3013558;-66
2023/06/21 09:05:19;;;;;;;9.00;5.00;;;;;;;27.76;45.15;99332.68;77955;1307;3049402;-66
2023/06/21 09:07:46;;;;;;;7.90;5.70;;;;;;;27.87;44.68;99330.93;79280;1304;3011859;-69
2023/06/21 09:10:16;;;;;;;6.80;5.50;;;;;;;27.85;44.55;99329.27;78642;1307;3012768;-67
2023/06/21 09:12:43;;;;;;;6.50;5.70;;;;;;;27.95;44.93;99328.92;77182;1311;3040959;-69
2023/06/21 09:15:11;;;;;;;10.50;5.80;;;;;;;27.91;45.58;99331.05;79389;1301;3012386;-67
2023/06/21 09:17:39;;;;;;;7.30;5.60;;;;;;;27.94;45.67;99329.80;77980;1303;3051047;-67
2023/06/21 09:20:08;;;;;;;7.00;5.50;;;;;;;27.89;45.99;99335.00;79424;1300;3019252;-69
2023/06/21 09:22:38;;;;;;;8.60;5.20;;;;;;;27.85;44.86;99334.55;78301;1309;3052454;-69
2023/06/21 09:25:05;;;;;;;9.10;6.00;;;;;;;27.84;45.09;99338.33;79422;1301;3013194;-69
2023/06/21 09:27:32;;;;;;;8.60;6.10;;;;;;;27.81;45.04;99331.73;79612;1296;3013683;-69
2023/06/21 09:30:00;;;;;;;7.40;5.70;;;;;;;27.96;45.16;99327.14;78184;1300;3056685;-66
2023/06/21 09:32:27;;;;;;;7.00;5.80;;;;;;;28.23;44.60;99321.48;79543;1300;3013230;-67
2023/06/21 09:34:53;;;;;;;8.80;5.80;;;;;;;28.48;44.33;99321.54;79402;1300;3011777;-68
2023/06/21 09:37:35;;;;;;;8.40;5.50;;;;;;;28.42;44.53;99323.19;78258;1300;3026279;-68
2023/06/21 09:40:04;;;;;;;9.20;6.40;;;;;;;28.33;45.15;99321.42;78175;1302;3051873;-70
2023/06/21 09:42:32;;;;;;;8.80;5.70;;;;;;;28.09;45.75;99323.77;79515;1307;3014670;-68
2023/06/21 09:44:59;;;;;;;8.70;5.60;;;;;;;27.95;46.44;99319.63;79384;1296;3013258;-68
2023/06/21 15:15:38;;;;;;;9.40;4.90;;;;;;;29.58;40.40;99352.09;80458;1297;3012880;-70
2023/06/21 15:18:05;;;;;;;6.60;5.10;;;;;;;29.59;41.31;99356.91;77834;1292;3013481;-72
2023/06/21 15:20:32;;;;;;;9.70;5.90;;;;;;;29.59;40.88;99352.65;79730;1292;3011402;-72
2023/06/21 15:23:00;;;;;;;10.70;4.90;;;;;;;29.66;40.18;99353.02;78386;1297;3053065;-72
2023/06/21 15:25:27;;;;;;;9.90;5.20;;;;;;;29.82;39.76;99356.14;79761;1292;3018578;-72
2023/06/21 15:27:54;;;;;;;12.80;4.50;;;;;;;30.08;39.08;99355.79;79727;1296;3011678;-70
2023/06/21 15:30:21;;;;;;;8.60;4.60;;;;;;;30.26;38.62;99355.52;78506;1297;3026248;-69
2023/06/21 15:32:49;;;;;;;8.30;4.80;;;;;;;30.59;37.76;99354.73;79721;1294;3013156;-70
2023/06/21 15:35:15;;;;;;;8.20;5.00;;;;;;;30.64;37.37;99356.74;79767;1292;3012884;-73
2023/06/21 15:37:43;;;;;;;10.00;6.00;;;;;;;30.90;37.00;99357.20;78532;1297;3052360;-66
2023/06/21 15:40:11;;;;;;;10.80;6.80;;;;;;;31.26;36.31;99362.85;79798;1297;3018186;-71
2023/06/21 15:42:38;;;;;;;12.90;6.90;;;;;;;31.45;35.81;99360.19;79814;1295;3011847;-67
2023/06/21 15:45:07;;;;;;;12.60;6.40;;;;;;;31.62;35.75;99359.23;78457;1298;3050284;-72
2023/06/21 15:47:33;;;;;;;10.70;7.10;;;;;;;31.73;35.49;99358.96;79678;1295;3014898;-71
2023/06/21 15:50:05;;;;;;;12.60;7.20;;;;;;;31.90;35.50;99369.23;79576;1299;3011370;-74
2023/06/21 15:52:33;;;;;;;10.10;6.80;;;;;;;31.98;35.23;99368.65;78573;1297;3052963;-72
2023/06/21 15:55:00;;;;;;;13.40;7.50;;;;;;;32.07;35.21;99374.61;79804;1295;3013647;-69
2023/06/21 15:57:26;;;;;;;15.40;9.40;;;;;;;32.17;34.98;99374.07;79756;1293;3011491;-73
2023/06/21 15:59:54;;;;;;;12.80;7.70;;;;;;;32.12;35.33;99377.36;78514;1297;3025966;-70
2023/06/21 16:02:21;;;;;;;10.20;6.70;;;;;;;32.16;35.24;99381.63;79846;1298;3013228;-71
2023/06/21 16:04:47;;;;;;;11.10;6.20;;;;;;;32.17;35.35;99380.84;79634;1298;3011687;-73
2023/06/21 16:07:15;;;;;;;8.70;5.20;;;;;;;32.01;35.50;99380.17;78529;1298;3027229;-70
2023/06/21 16:09:42;;;;;;;8.10;5.40;;;;;;;31.89;35.70;99380.73;79834;1293;3014185;-74
2023/06/21 16:12:09;;;;;;;7.00;4.80;;;;;;;31.92;35.43;99382.09;79793;1297;3011478;-72
2023/06/21 16:14:36;;;;;;;7.30;5.10;;;;;;;31.85;35.46;99384.01;78563;1298;3026760;-71
2023/06/21 16:17:03;;;;;;;6.80;5.40;;;;;;;31.65;35.73;99390.52;79804;1292;3013030;-72
2023/06/21 16:19:30;;;;;;;5.50;4.60;;;;;;;31.72;35.47;99395.05;79824;1297;3011602;-76
2023/06/21 16:21:58;;;;;;;5.60;4.50;;;;;;;31.82;35.10;99398.92;78519;1298;3026433;-72
2023/06/21 16:24:25;;;;;;;11.80;4.90;;;;;;;31.83;34.83;99400.84;79867;1299;3013690;-74
2023/06/21 16:26:52;;;;;;;5.10;4.60;;;;;;;31.82;34.91;99406.40;79829;1292;3011577;-73
2023/06/21 16:29:20;;;;;;;6.60;4.60;;;;;;;31.97;34.56;99406.89;78320;1298;3026261;-72
2023/06/21 16:31:47;;;;;;;5.70;4.50;;;;;;;32.09;34.47;99409.38;79827;1293;3020623;-72
2023/06/21 16:34:13;;;;;;;7.30;5.10;;;;;;;32.12;34.44;99408.21;79709;1298;3011914;-70
2023/06/21 16:36:43;;;;;;;7.20;4.60;;;;;;;32.11;34.51;99411.77;78612;1298;3052846;-71
2023/06/21 16:39:10;;;;;;;8.60;4.70;;;;;;;32.04;34.69;99411.34;79728;1297;3013134;-74
2023/06/21 16:41:37;;;;;;;9.20;4.90;;;;;;;31.92;34.87;99413.59;79777;1292;3011645;-71
2023/06/21 16:44:05;;;;;;;6.30;4.70;;;;;;;31.61;35.34;99414.52;78489;1298;3049283;-70
2023/06/21 16:46:32;;;;;;;7.40;4.90;;;;;;;31.12;36.26;99413.25;79738;1297;3013212;-74
2023/06/21 16:48:58;;;;;;;7.20;4.80;;;;;;;30.73;37.22;99414.30;79776;1297;3011719;-73
2023/06/21 16:51:26;;;;;;;8.70;4.70;;;;;;;30.49;37.61;99413.33;78548;1298;3026114;-72
2023/06/21 16:53:53;;;;;;;6.70;4.80;;;;;;;30.10;38.14;99408.28;79717;1297;3014016;-72